Time;durP1;ratioP1;P1;durP2;ratioP2;P2;SDS_P1;SDS_P2;PMS_P1;PMS_P2;Temp;Humidity;BMP_temperature;BMP_pressure;BME280_temperature;BME280_humidity;BME280_pressure;Samples;Min_cycle;Max_cycle;Signal;HPM_P1;HPM_P2
2022/08/03 00:00:43;;;;;;;4.55;3.15;;;;;;;;;;5078328;28;20052;-64
2022/08/03 00:03:11;;;;;;;4.53;3.00;;;;;;;;;;5077492;28;20044;-64
2022/08/03 00:05:39;;;;;;;3.80;2.97;;;;;;;;;;5096596;28;20474;-64
2022/08/03 00:08:27;;;;;;;4.57;2.88;;;;;;;;;;5078281;28;20044;-65
2022/08/03 00:10:55;;;;;;;4.05;3.13;;;;;;;;;;5095755;28;20079;-64
2022/08/03 00:13:23;;;;;;;3.58;3.17;;;;;;;;;;5095986;28;20504;-65
2022/08/03 00:15:50;;;;;;;5.45;3.20;;;;;;;;;;5095361;28;20513;-65
2022/08/03 00:18:18;;;;;;;4.55;3.22;;;;;;;;;;5094486;28;20048;-65
2022/08/03 00:20:45;;;;;;;4.97;2.90;;;;;;;;;;5095409;28;20044;-65
2022/08/03 00:23:13;;;;;;;4.97;3.30;;;;;;;;;;5095944;28;20118;-65
2022/08/03 00:25:41;;;;;;;5.40;3.20;;;;;;;;;;5095563;28;20050;-66
2022/08/03 00:28:08;;;;;;;4.80;3.17;;;;;;;;;;5095397;28;20394;-66
2022/08/03 00:30:36;;;;;;;5.13;3.22;;;;;;;;;;5095190;28;20040;-66
2022/08/03 00:33:03;;;;;;;6.03;3.33;;;;;;;;;;5095267;28;20394;-65
2022/08/03 00:35:34;;;;;;;3.65;3.08;;;;;;;;;;5095044;28;20485;-65
2022/08/03 00:38:17;;;;;;;6.10;3.42;;;;;;;;;;5077116;28;20119;-64
2022/08/03 00:40:45;;;;;;;4.85;3.20;;;;;;;;;;5095209;28;20047;-65
2022/08/03 00:43:12;;;;;;;4.60;2.70;;;;;;;;;;5095070;28;20036;-65
2022/08/03 00:45:41;;;;;;;5.47;3.53;;;;;;;;;;5094638;28;20044;-65
2022/08/03 00:48:09;;;;;;;3.97;3.45;;;;;;;;;;5095505;28;20036;-66
2022/08/03 00:50:57;;;;;;;5.78;3.25;;;;;;;;;;5094800;28;20521;-66
2022/08/03 00:53:25;;;;;;;5.35;3.45;;;;;;;;;;5094713;28;20480;-66
2022/08/03 00:55:52;;;;;;;6.82;3.40;;;;;;;;;;5095684;28;20477;-66
2022/08/03 00:58:22;;;;;;;4.75;3.30;;;;;;;;;;5094613;28;20032;-66
2022/08/03 01:00:50;;;;;;;5.18;3.45;;;;;;;;;;5094703;28;20070;-64
2022/08/03 01:03:18;;;;;;;5.53;3.75;;;;;;;;;;5095155;28;20070;-65
2022/08/03 01:05:45;;;;;;;14.80;10.52;;;;;;;;;;5077160;28;20576;-65
2022/08/03 01:08:23;;;;;;;5.05;3.90;;;;;;;;;;5094722;28;20043;-65
2022/08/03 01:10:53;;;;;;;4.47;3.33;;;;;;;;;;5094112;28;20051;-64
2022/08/03 01:13:21;;;;;;;7.57;3.90;;;;;;;;;;5094575;28;20047;-65
2022/08/03 01:16:14;;;;;;;5.78;3.00;;;;;;;;;;5094597;28;20382;-65
2022/08/03 01:18:51;;;;;;;5.75;3.40;;;;;;;;;;5094197;28;20066;-64
2022/08/03 01:21:24;;;;;;;6.75;3.45;;;;;;;;;;5094659;28;20042;-64
2022/08/03 01:24:10;;;;;;;11.43;8.60;;;;;;;;;;5094182;28;20043;-64
2022/08/03 01:26:56;;;;;;;17.55;13.98;;;;;;;;;;5094456;28;20059;-65
2022/08/03 01:29:42;;;;;;;29.50;24.13;;;;;;;;;;5094343;28;20059;-65
2022/08/03 01:32:12;;;;;;;7.80;4.05;;;;;;;;;;5094223;28;20056;-64
2022/08/03 01:35:09;;;;;;;4.90;3.70;;;;;;;;;;5094172;28;20119;-65
2022/08/03 01:37:43;;;;;;;5.85;3.60;;;;;;;;;;5093751;28;20047;-65
2022/08/03 01:40:12;;;;;;;23.70;15.50;;;;;;;;;;5093718;28;20040;-65
2022/08/03 01:42:40;;;;;;;7.38;3.70;;;;;;;;;;5094157;28;20039;-64
2022/08/03 01:45:09;;;;;;;7.28;3.97;;;;;;;;;;5094195;28;20040;-64
2022/08/03 01:47:37;;;;;;;6.38;3.50;;;;;;;;;;5094763;28;20473;-65
2022/08/03 01:50:06;;;;;;;7.28;3.30;;;;;;;;;;5094301;28;20516;-65
2022/08/03 01:52:35;;;;;;;5.97;4.25;;;;;;;;;;5093715;28;20054;-65
2022/08/03 01:55:03;;;;;;;7.85;3.70;;;;;;;;;;5094107;28;20036;-65
2022/08/03 01:57:31;;;;;;;5.45;3.55;;;;;;;;;;5076602;28;20044;-64
2022/08/03 02:00:18;;;;;;;4.47;3.60;;;;;;;;;;5093888;28;20039;-64
2022/08/03 02:02:49;;;;;;;5.13;3.85;;;;;;;;;;5093337;28;20047;-64
2022/08/03 02:05:18;;;;;;;4.18;3.72;;;;;;;;;;5093830;28;20447;-65
2022/08/03 02:07:47;;;;;;;5.80;4.43;;;;;;;;;;5075991;28;20032;-65
2022/08/03 02:10:18;;;;;;;6.82;3.78;;;;;;;;;;5093238;28;20078;-65
2022/08/03 02:13:03;;;;;;;5.97;3.72;;;;;;;;;;5093296;28;20040;-66
2022/08/03 02:15:32;;;;;;;6.43;3.50;;;;;;;;;;5075694;28;20440;-65
2022/08/03 02:18:00;;;;;;;4.97;4.00;;;;;;;;;;5075657;28;20501;-66
2022/08/03 02:20:29;;;;;;;6.68;4.85;;;;;;;;;;5093186;28;20032;-66
2022/08/03 02:22:56;;;;;;;6.13;3.70;;;;;;;;;;5093481;28;20064;-65
2022/08/03 02:25:24;;;;;;;4.07;3.70;;;;;;;;;;5093064;28;20398;-65
2022/08/03 02:27:54;;;;;;;4.90;4.40;;;;;;;;;;5092957;28;20047;-66
2022/08/03 02:30:24;;;;;;;8.95;4.40;;;;;;;;;;5093464;28;20302;-66
2022/08/03 02:32:55;;;;;;;13.82;11.60;;;;;;;;;;5074790;28;20051;-66
2022/08/03 02:35:24;;;;;;;8.18;4.57;;;;;;;;;;5075092;28;20047;-66
2022/08/03 02:37:57;;;;;;;23.85;18.85;;;;;;;;;;5093353;28;20393;-66
2022/08/03 02:40:26;;;;;;;29.42;23.35;;;;;;;;;;5092090;28;20074;-65
2022/08/03 02:42:57;;;;;;;28.67;21.40;;;;;;;;;;5092773;28;20375;-66
2022/08/03 02:45:25;;;;;;;11.05;8.57;;;;;;;;;;5092959;28;20044;-65
2022/08/03 02:47:56;;;;;;;6.82;3.80;;;;;;;;;;5092639;28;20036;-66
2022/08/03 02:50:24;;;;;;;13.07;7.38;;;;;;;;;;5074581;28;20131;-66
2022/08/03 02:52:52;;;;;;;23.38;19.20;;;;;;;;;;5092655;28;20062;-66
2022/08/03 02:55:21;;;;;;;4.13;3.72;;;;;;;;;;5092706;28;20036;-66
2022/08/03 02:57:49;;;;;;;6.75;4.72;;;;;;;;;;5093243;28;20065;-65
2022/08/03 03:00:17;;;;;;;4.78;4.28;;;;;;;;;;5092690;28;20040;-65
2022/08/03 03:02:57;;;;;;;6.53;5.00;;;;;;;;;;5092831;28;20489;-65
2022/08/03 03:05:25;;;;;;;8.82;4.72;;;;;;;;;;5092958;28;20134;-65
2022/08/03 03:08:13;;;;;;;4.63;4.18;;;;;;;;;;5093107;28;20093;-65
2022/08/03 03:10:46;;;;;;;5.50;4.28;;;;;;;;;;5092308;28;20046;-65
2022/08/03 03:13:14;;;;;;;10.32;6.65;;;;;;;;;;5093208;28;20410;-65
2022/08/03 03:15:43;;;;;;;6.45;4.22;;;;;;;;;;5092933;28;20048;-65
2022/08/03 03:18:11;;;;;;;7.40;4.30;;;;;;;;;;5092745;28;20108;-65
2022/08/03 03:20:39;;;;;;;8.73;4.65;;;;;;;;;;5092814;28;20058;-65
2022/08/03 03:23:08;;;;;;;6.00;4.40;;;;;;;;;;5074796;28;20535;-65
2022/08/03 03:25:36;;;;;;;5.60;4.30;;;;;;;;;;5092369;28;20371;-65
2022/08/03 03:28:05;;;;;;;8.00;4.32;;;;;;;;;;5074917;28;20085;-65
2022/08/03 03:30:32;;;;;;;9.18;4.45;;;;;;;;;;5093670;28;20044;-65
2022/08/03 03:33:01;;;;;;;9.95;4.70;;;;;;;;;;5093667;28;20044;-65
2022/08/03 03:35:29;;;;;;;8.68;4.90;;;;;;;;;;5093628;28;20040;-65
2022/08/03 03:38:03;;;;;;;8.00;4.80;;;;;;;;;;5093363;28;20097;-65
2022/08/03 03:40:30;;;;;;;12.38;5.28;;;;;;;;;;5092244;28;20046;-65
2022/08/03 03:42:58;;;;;;;9.02;5.32;;;;;;;;;;5092354;28;20093;-65
2022/08/03 03:45:26;;;;;;;8.48;5.93;;;;;;;;;;5092283;28;20052;-65
2022/08/03 03:47:53;;;;;;;15.35;11.40;;;;;;;;;;5093467;28;20066;-65
2022/08/03 03:50:22;;;;;;;12.15;7.35;;;;;;;;;;5074434;28;20047;-65
2022/08/03 03:52:49;;;;;;;8.73;5.50;;;;;;;;;;5095585;28;20489;-66
2022/08/03 03:55:17;;;;;;;8.80;6.07;;;;;;;;;;5096444;28;20044;-66
2022/08/03 03:57:45;;;;;;;20.30;14.35;;;;;;;;;;5095638;28;20111;-65
2022/08/03 04:00:13;;;;;;;17.10;10.18;;;;;;;;;;5095998;28;20094;-66
2022/08/03 04:02:41;;;;;;;11.18;6.38;;;;;;;;;;5095540;28;20481;-65
2022/08/03 04:11:08;;;;;;;8.93;5.78;;;;;;;;;;5096209;28;20068;-66
2022/08/03 04:13:39;;;;;;;10.38;5.05;;;;;;;;;;5096376;28;20051;-66
2022/08/03 04:16:07;;;;;;;9.30;6.05;;;;;;;;;;5096208;28;20101;-66
2022/08/03 04:18:36;;;;;;;13.10;10.18;;;;;;;;;;5095686;28;20505;-66
2022/08/03 04:21:05;;;;;;;21.25;16.83;;;;;;;;;;5095281;28;20040;-65
2022/08/03 04:23:35;;;;;;;19.05;10.48;;;;;;;;;;5077775;28;20044;-65
2022/08/03 04:26:06;;;;;;;13.70;8.45;;;;;;;;;;5095522;28;20048;-65
2022/08/03 04:28:34;;;;;;;12.23;5.88;;;;;;;;;;5095721;28;20036;-65
2022/08/03 04:31:03;;;;;;;13.98;9.07;;;;;;;;;;5095566;28;20046;-65
2022/08/03 04:33:32;;;;;;;10.63;7.32;;;;;;;;;;5077177;28;20104;-65
2022/08/03 04:36:01;;;;;;;10.13;6.57;;;;;;;;;;5095332;28;20093;-65
2022/08/03 04:38:31;;;;;;;46.60;28.45;;;;;;;;;;5095351;28;20466;-65
2022/08/03 04:41:00;;;;;;;7.13;4.38;;;;;;;;;;5095862;28;20040;-64
2022/08/03 04:43:28;;;;;;;6.13;4.45;;;;;;;;;;5095360;28;20040;-65
2022/08/03 04:45:56;;;;;;;9.65;4.40;;;;;;;;;;5095964;28;20567;-64
2022/08/03 04:48:24;;;;;;;6.00;4.18;;;;;;;;;;5095507;28;20036;-65
2022/08/03 04:50:51;;;;;;;5.38;4.15;;;;;;;;;;5095798;28;20040;-65
2022/08/03 04:53:19;;;;;;;7.53;5.15;;;;;;;;;;5095645;28;20052;-65
2022/08/03 04:55:47;;;;;;;6.15;5.32;;;;;;;;;;5095224;28;20040;-65
2022/08/03 04:58:15;;;;;;;8.18;5.15;;;;;;;;;;5095214;28;20035;-65
2022/08/03 05:00:44;;;;;;;9.40;5.72;;;;;;;;;;5094488;28;20093;-65
2022/08/03 05:03:12;;;;;;;9.65;6.38;;;;;;;;;;5094467;28;20067;-65
2022/08/03 05:05:51;;;;;;;18.65;14.85;;;;;;;;;;5079113;28;20044;-65
2022/08/03 05:08:19;;;;;;;19.67;15.32;;;;;;;;;;5094991;28;20040;-65
2022/08/03 05:10:54;;;;;;;14.23;9.55;;;;;;;;;;5094500;28;20555;-65
2022/08/03 05:13:25;;;;;;;14.07;8.30;;;;;;;;;;5094556;28;20077;-65
2022/08/03 05:15:53;;;;;;;19.67;10.77;;;;;;;;;;5094366;28;20127;-65
2022/08/03 05:18:20;;;;;;;16.80;8.85;;;;;;;;;;5092400;28;20071;-65
2022/08/03 05:20:48;;;;;;;10.25;4.72;;;;;;;;;;5095301;28;20390;-65
2022/08/03 05:23:15;;;;;;;6.40;4.03;;;;;;;;;;5094633;28;20063;-65
2022/08/03 05:25:43;;;;;;;9.00;4.68;;;;;;;;;;5094640;28;20046;-65
2022/08/03 05:28:16;;;;;;;10.07;5.63;;;;;;;;;;5095150;28;20046;-65
2022/08/03 05:30:45;;;;;;;5.93;5.32;;;;;;;;;;5093871;28;20036;-65
2022/08/03 05:33:12;;;;;;;15.88;12.07;;;;;;;;;;5094428;28;20036;-65
2022/08/03 05:35:40;;;;;;;15.20;10.70;;;;;;;;;;5089375;28;20041;-65
2022/08/03 05:38:27;;;;;;;10.35;6.93;;;;;;;;;;5073666;28;20090;-65
2022/08/03 05:41:04;;;;;;;10.35;6.40;;;;;;;;;;5073224;28;20086;-65
2022/08/03 05:43:51;;;;;;;12.10;5.63;;;;;;;;;;5088351;28;20071;-65
2022/08/03 05:46:19;;;;;;;12.38;7.40;;;;;;;;;;5092966;28;20055;-65
2022/08/03 05:48:46;;;;;;;8.90;6.28;;;;;;;;;;5092446;28;20036;-66
2022/08/03 05:51:14;;;;;;;10.05;6.22;;;;;;;;;;5094065;28;20040;-65
2022/08/03 05:53:42;;;;;;;9.90;6.63;;;;;;;;;;5093098;28;20435;-66
2022/08/03 05:56:11;;;;;;;11.27;7.57;;;;;;;;;;5094037;28;20071;-65
2022/08/03 05:58:45;;;;;;;11.38;7.50;;;;;;;;;;5093541;28;20040;-65
2022/08/03 06:01:14;;;;;;;11.27;6.53;;;;;;;;;;5090507;28;20466;-65
2022/08/03 06:03:42;;;;;;;8.63;4.22;;;;;;;;;;5081238;28;20420;-66
2022/08/03 06:06:10;;;;;;;8.32;4.68;;;;;;;;;;5092962;28;20040;-66
2022/08/03 06:08:38;;;;;;;5.50;4.63;;;;;;;;;;5093466;28;20024;-66
2022/08/03 06:11:07;;;;;;;7.53;3.78;;;;;;;;;;5093387;28;20032;-65
2022/08/03 06:13:35;;;;;;;12.90;6.07;;;;;;;;;;5093908;28;20036;-66
2022/08/03 06:16:03;;;;;;;18.00;6.25;;;;;;;;;;5075671;28;20043;-65
2022/08/03 06:18:30;;;;;;;17.63;6.40;;;;;;;;;;5086669;28;20421;-65
2022/08/03 06:20:58;;;;;;;28.45;9.90;;;;;;;;;;5092280;28;20036;-66
2022/08/03 06:23:42;;;;;;;11.43;5.40;;;;;;;;;;5092556;28;20047;-66
2022/08/03 06:26:21;;;;;;;10.13;4.95;;;;;;;;;;5093323;28;20043;-65
2022/08/03 06:28:48;;;;;;;11.15;5.00;;;;;;;;;;5093414;28;20048;-66
2022/08/03 06:31:25;;;;;;;15.18;5.32;;;;;;;;;;5092477;28;20381;-66
2022/08/03 06:34:00;;;;;;;10.68;3.63;;;;;;;;;;5090982;28;20036;-66
2022/08/03 06:36:49;;;;;;;5.25;3.58;;;;;;;;;;5079461;28;20058;-66
2022/08/03 06:39:19;;;;;;;21.05;6.75;;;;;;;;;;5092328;28;20044;-66
2022/08/03 06:41:46;;;;;;;9.30;5.47;;;;;;;;;;5092532;28;20043;-66
2022/08/03 06:44:14;;;;;;;7.53;3.40;;;;;;;;;;5092668;28;20036;-65
2022/08/03 06:46:42;;;;;;;15.23;5.82;;;;;;;;;;5093752;28;20493;-66
2022/08/03 06:49:09;;;;;;;3.53;2.97;;;;;;;;;;5093458;28;20036;-66
2022/08/03 06:51:37;;;;;;;3.83;3.08;;;;;;;;;;5090472;28;20115;-66
2022/08/03 06:54:24;;;;;;;11.27;4.10;;;;;;;;;;5092649;28;20752;-66
2022/08/03 06:56:52;;;;;;;6.00;2.90;;;;;;;;;;5092792;28;20067;-66
2022/08/03 06:59:19;;;;;;;4.55;2.70;;;;;;;;;;5092713;28;20052;-65
2022/08/03 07:02:08;;;;;;;6.47;2.85;;;;;;;;;;5071941;28;20107;-65
2022/08/03 07:04:36;;;;;;;8.02;2.95;;;;;;;;;;5092989;28;20109;-66
2022/08/03 07:07:03;;;;;;;4.45;2.40;;;;;;;;;;5093270;28;20044;-66
2022/08/03 07:09:31;;;;;;;4.15;3.38;;;;;;;;;;5093134;28;20055;-66
2022/08/03 07:12:01;;;;;;;5.07;2.70;;;;;;;;;;5092810;28;20032;-66
2022/08/03 07:14:28;;;;;;;3.72;2.42;;;;;;;;;;5092973;28;20040;-66
2022/08/03 07:16:57;;;;;;;3.63;2.38;;;;;;;;;;5093810;28;20036;-66
2022/08/03 07:19:24;;;;;;;10.00;3.58;;;;;;;;;;5092331;28;20072;-66
2022/08/03 07:21:52;;;;;;;6.18;2.88;;;;;;;;;;5092424;28;20036;-66
2022/08/03 07:24:20;;;;;;;6.18;3.15;;;;;;;;;;5092994;28;20047;-65
2022/08/03 07:26:48;;;;;;;5.10;3.50;;;;;;;;;;5094128;28;20138;-66
2022/08/03 07:29:15;;;;;;;2.83;2.60;;;;;;;;;;5096986;28;20490;-66
2022/08/03 07:31:43;;;;;;;4.68;3.78;;;;;;;;;;5096864;28;20050;-66
2022/08/03 07:34:11;;;;;;;7.70;3.75;;;;;;;;;;5096859;28;20112;-66
2022/08/03 07:36:38;;;;;;;6.43;3.17;;;;;;;;;;5096627;28;20047;-66
2022/08/03 07:39:06;;;;;;;7.50;3.00;;;;;;;;;;5097239;28;20409;-66
2022/08/03 07:41:44;;;;;;;4.20;2.58;;;;;;;;;;5097207;28;20047;-66
2022/08/03 07:44:12;;;;;;;3.28;2.88;;;;;;;;;;5097008;28;20036;-65
2022/08/03 07:46:39;;;;;;;5.07;3.13;;;;;;;;;;5096695;28;20043;-66
2022/08/03 07:49:07;;;;;;;5.20;3.75;;;;;;;;;;5096310;28;20043;-66
2022/08/03 07:51:35;;;;;;;3.72;3.00;;;;;;;;;;5094645;28;20515;-66
2022/08/03 07:54:03;;;;;;;2.83;2.40;;;;;;;;;;5096043;28;20076;-66
2022/08/03 07:56:31;;;;;;;4.10;3.00;;;;;;;;;;5096514;28;20048;-66
2022/08/03 07:58:58;;;;;;;2.78;2.58;;;;;;;;;;5096127;28;20652;-64
2022/08/03 08:01:28;;;;;;;5.28;2.78;;;;;;;;;;5077450;28;20040;-66
2022/08/03 08:03:56;;;;;;;5.78;3.03;;;;;;;;;;5096631;28;20040;-66
2022/08/03 08:06:23;;;;;;;3.60;3.10;;;;;;;;;;5096618;28;20118;-66
2022/08/03 08:08:52;;;;;;;4.53;3.13;;;;;;;;;;5096506;28;20040;-66
2022/08/03 08:11:21;;;;;;;5.22;3.22;;;;;;;;;;5096679;28;20036;-66
2022/08/03 08:13:48;;;;;;;4.57;4.18;;;;;;;;;;5096323;28;20043;-67
2022/08/03 08:16:16;;;;;;;5.13;3.80;;;;;;;;;;5097029;28;20055;-66
2022/08/03 08:18:43;;;;;;;12.30;8.30;;;;;;;;;;5096672;28;20066;-66
2022/08/03 08:21:11;;;;;;;12.32;9.82;;;;;;;;;;5095977;28;20055;-67
2022/08/03 08:23:38;;;;;;;4.13;3.17;;;;;;;;;;5096194;28;20036;-67
2022/08/03 08:26:10;;;;;;;5.03;2.83;;;;;;;;;;5095865;28;20098;-66
2022/08/03 08:28:38;;;;;;;33.85;15.65;;;;;;;;;;5078345;28;20387;-67
2022/08/03 08:31:05;;;;;;;3.53;2.60;;;;;;;;;;5095690;28;20578;-66
2022/08/03 08:33:34;;;;;;;4.15;3.45;;;;;;;;;;5095605;28;20048;-66
2022/08/03 08:36:22;;;;;;;3.05;2.30;;;;;;;;;;5095636;28;20064;-66
2022/08/03 08:38:50;;;;;;;11.93;7.47;;;;;;;;;;5095155;28;20048;-67
2022/08/03 08:41:18;;;;;;;4.18;2.55;;;;;;;;;;5077710;28;20424;-67
2022/08/03 08:43:45;;;;;;;5.03;2.53;;;;;;;;;;5096263;28;20032;-67
2022/08/03 08:46:14;;;;;;;4.03;3.10;;;;;;;;;;5077740;28;20055;-67
2022/08/03 08:48:51;;;;;;;3.67;2.92;;;;;;;;;;5096156;28;20054;-66
2022/08/03 08:51:20;;;;;;;4.28;2.42;;;;;;;;;;5095178;28;20044;-66
2022/08/03 08:53:49;;;;;;;3.80;2.50;;;;;;;;;;5077386;28;20071;-67
2022/08/03 08:56:17;;;;;;;4.38;2.95;;;;;;;;;;5095840;28;20410;-66
2022/08/03 08:58:47;;;;;;;5.65;2.20;;;;;;;;;;5077988;28;20051;-66
2022/08/03 09:01:18;;;;;;;5.13;2.80;;;;;;;;;;5095462;28;20048;-66
2022/08/03 09:03:46;;;;;;;5.65;2.92;;;;;;;;;;5095662;28;20050;-66
2022/08/03 09:06:14;;;;;;;3.05;2.40;;;;;;;;;;5095297;28;20040;-66
2022/08/03 09:08:41;;;;;;;3.53;2.47;;;;;;;;;;5095013;28;20113;-66
2022/08/03 09:11:09;;;;;;;5.97;2.60;;;;;;;;;;5095151;28;20040;-66
2022/08/03 09:13:38;;;;;;;6.85;2.33;;;;;;;;;;5094640;28;20043;-66
2022/08/03 09:16:14;;;;;;;3.90;2.45;;;;;;;;;;5094343;28;20040;-66
2022/08/03 09:18:45;;;;;;;5.35;2.47;;;;;;;;;;5094561;28;20044;-66
2022/08/03 09:21:24;;;;;;;5.22;4.07;;;;;;;;;;5094677;28;20109;-66
2022/08/03 09:24:01;;;;;;;6.82;4.03;;;;;;;;;;5094714;28;20040;-66
2022/08/03 09:26:36;;;;;;;4.18;2.70;;;;;;;;;;5094742;28;20440;-66
2022/08/03 09:29:07;;;;;;;4.05;2.35;;;;;;;;;;5094887;28;20036;-67
2022/08/03 09:31:44;;;;;;;2.67;2.30;;;;;;;;;;5094533;28;20109;-66
2022/08/03 09:34:13;;;;;;;2.50;2.30;;;;;;;;;;5094275;28;20470;-67
2022/08/03 09:36:42;;;;;;;2.22;2.10;;;;;;;;;;5094508;28;20085;-67
2022/08/03 09:39:11;;;;;;;3.10;2.20;;;;;;;;;;5091028;28;20036;-65
2022/08/03 09:41:40;;;;;;;5.32;2.38;;;;;;;;;;5094502;28;20066;-66
2022/08/03 09:44:07;;;;;;;2.67;2.47;;;;;;;;;;5095110;28;20036;-65
2022/08/03 09:46:51;;;;;;;3.78;2.88;;;;;;;;;;5094180;28;20050;-66
2022/08/03 09:49:19;;;;;;;4.75;2.60;;;;;;;;;;5092942;28;20036;-66
2022/08/03 09:51:47;;;;;;;4.10;2.88;;;;;;;;;;5094137;28;20043;-66
2022/08/03 09:54:35;;;;;;;4.22;2.40;;;;;;;;;;5094136;28;20048;-65
2022/08/03 09:57:02;;;;;;;2.90;2.60;;;;;;;;;;5094426;28;20040;-65
2022/08/03 09:59:31;;;;;;;4.47;2.60;;;;;;;;;;5093797;28;20040;-62
2022/08/03 10:01:59;;;;;;;3.20;2.58;;;;;;;;;;5093400;28;20043;-64
2022/08/03 10:04:27;;;;;;;2.30;2.10;;;;;;;;;;5093127;28;20036;-65
2022/08/03 10:07:03;;;;;;;4.60;2.80;;;;;;;;;;5086875;28;20115;-66
2022/08/03 10:09:32;;;;;;;4.05;2.90;;;;;;;;;;5081220;28;20093;-65
2022/08/03 10:12:09;;;;;;;6.40;3.85;;;;;;;;;;5092301;28;20036;-65
2022/08/03 10:14:38;;;;;;;4.82;3.55;;;;;;;;;;5091804;28;20475;-65
2022/08/03 10:17:05;;;;;;;3.08;2.55;;;;;;;;;;5092086;28;20040;-65
2022/08/03 10:19:33;;;;;;;3.63;2.60;;;;;;;;;;5091838;28;20070;-65
2022/08/03 10:22:03;;;;;;;3.40;2.35;;;;;;;;;;5092650;28;20055;-65
2022/08/03 10:24:34;;;;;;;6.97;2.65;;;;;;;;;;5092898;28;20036;-65
2022/08/03 10:27:04;;;;;;;12.77;4.38;;;;;;;;;;5092554;28;20052;-65
2022/08/03 10:29:35;;;;;;;5.60;2.70;;;;;;;;;;5092257;28;20055;-66
2022/08/03 10:32:04;;;;;;;3.42;2.50;;;;;;;;;;5092224;28;20067;-66
2022/08/03 10:34:34;;;;;;;3.05;2.17;;;;;;;;;;5092511;28;20047;-65
2022/08/03 10:37:03;;;;;;;3.88;2.17;;;;;;;;;;5080622;28;20560;-65
2022/08/03 10:39:30;;;;;;;3.03;2.47;;;;;;;;;;5085945;28;20040;-65
2022/08/03 10:41:58;;;;;;;4.25;2.83;;;;;;;;;;5085947;28;20048;-65
2022/08/03 10:44:39;;;;;;;5.13;2.75;;;;;;;;;;5087573;28;20093;-65
2022/08/03 10:47:09;;;;;;;5.95;2.50;;;;;;;;;;5090182;28;20047;-65
2022/08/03 10:49:37;;;;;;;4.78;2.60;;;;;;;;;;5067227;28;20044;-65
2022/08/03 10:52:04;;;;;;;3.42;2.45;;;;;;;;;;5091383;28;20111;-64
2022/08/03 10:57:43;;;;;;;2.13;2.03;;;;;;;;;;5092619;28;20056;-66
2022/08/03 11:00:15;;;;;;;2.30;2.10;;;;;;;;;;5091980;28;20044;-66
2022/08/03 11:03:02;;;;;;;2.97;2.00;;;;;;;;;;5091922;28;20044;-66
2022/08/03 11:05:30;;;;;;;3.78;2.63;;;;;;;;;;5092340;28;20036;-66
2022/08/03 11:08:16;;;;;;;4.15;2.42;;;;;;;;;;5092338;28;20557;-66
2022/08/03 11:10:44;;;;;;;3.58;2.72;;;;;;;;;;5074458;28;20040;-66
2022/08/03 11:13:15;;;;;;;2.47;2.22;;;;;;;;;;5092441;28;20426;-66
2022/08/03 11:15:45;;;;;;;3.25;2.20;;;;;;;;;;5092303;28;20515;-66
2022/08/03 11:18:13;;;;;;;5.00;3.10;;;;;;;;;;5092326;28;20043;-66
2022/08/03 11:20:57;;;;;;;3.22;2.33;;;;;;;;;;5091864;28;20032;-67
2022/08/03 11:23:43;;;;;;;2.42;2.10;;;;;;;;;;5092541;28;20070;-67
2022/08/03 11:26:31;;;;;;;5.38;2.20;;;;;;;;;;5092313;28;20037;-66
2022/08/03 11:29:18;;;;;;;12.15;9.70;;;;;;;;;;5074699;28;20040;-66
2022/08/03 11:31:46;;;;;;;3.00;2.67;;;;;;;;;;5092256;28;20097;-66
2022/08/03 11:34:17;;;;;;;4.30;2.60;;;;;;;;;;5092312;28;20432;-66
2022/08/03 11:37:03;;;;;;;2.83;2.10;;;;;;;;;;5092279;28;20036;-66
2022/08/03 11:39:44;;;;;;;3.30;2.40;;;;;;;;;;5092496;28;20063;-66
2022/08/03 11:42:25;;;;;;;2.80;2.30;;;;;;;;;;5091559;28;20566;-66
2022/08/03 11:44:57;;;;;;;4.22;2.25;;;;;;;;;;5091754;28;20036;-66
2022/08/03 11:47:26;;;;;;;3.20;2.08;;;;;;;;;;5091988;28;20569;-66
2022/08/03 11:49:54;;;;;;;3.70;2.55;;;;;;;;;;5073460;28;20115;-65
2022/08/03 11:52:22;;;;;;;3.22;2.20;;;;;;;;;;5071343;28;20130;-66
2022/08/03 11:54:57;;;;;;;4.50;3.47;;;;;;;;;;5071620;28;20127;-66
2022/08/03 11:57:31;;;;;;;10.98;5.10;;;;;;;;;;5071624;28;20051;-66
2022/08/03 12:00:19;;;;;;;;;;;;;;;;;;5072242;28;20044;-65
2022/08/03 12:02:56;;;;;;;2.42;2.22;;;;;;;;;;5071370;28;19926;-66
2022/08/03 12:05:40;;;;;;;3.38;2.30;;;;;;;;;;5053458;28;20037;-66
2022/08/03 12:08:26;;;;;;;3.40;2.63;;;;;;;;;;5071857;28;20098;-66
2022/08/03 12:10:54;;;;;;;8.38;4.82;;;;;;;;;;5071824;28;20036;-65
2022/08/03 12:13:22;;;;;;;6.93;4.13;;;;;;;;;;5072209;28;20037;-66
2022/08/03 12:16:10;;;;;;;2.42;2.22;;;;;;;;;;5075250;28;20501;-65
2022/08/03 12:18:38;;;;;;;3.20;2.90;;;;;;;;;;5075014;28;20040;-65
2022/08/03 12:21:08;;;;;;;3.13;2.38;;;;;;;;;;5075071;28;20093;-65
2022/08/03 12:23:36;;;;;;;4.22;2.50;;;;;;;;;;5075064;28;20048;-65
2022/08/03 12:26:09;;;;;;;4.13;3.60;;;;;;;;;;5075121;28;20040;-65
2022/08/03 12:28:37;;;;;;;3.57;2.70;;;;;;;;;;5075087;28;20067;-66
2022/08/03 12:31:09;;;;;;;5.55;2.60;;;;;;;;;;5075120;28;20039;-66
2022/08/03 12:33:54;;;;;;;3.72;2.58;;;;;;;;;;5057240;28;20135;-66
2022/08/03 12:36:22;;;;;;;6.60;2.38;;;;;;;;;;5074884;28;20064;-66
2022/08/03 12:38:58;;;;;;;3.22;2.90;;;;;;;;;;5075127;28;20041;-66
2022/08/03 12:41:34;;;;;;;4.47;2.88;;;;;;;;;;5074742;28;20052;-66
2022/08/03 12:44:03;;;;;;;4.65;2.58;;;;;;;;;;5080978;28;20032;-66
2022/08/03 12:46:34;;;;;;;3.75;2.72;;;;;;;;;;5094807;28;20486;-66
2022/08/03 12:49:04;;;;;;;7.03;5.95;;;;;;;;;;5076942;28;20040;-66
2022/08/03 12:51:34;;;;;;;5.30;2.90;;;;;;;;;;5060391;28;20139;-66
2022/08/03 12:54:02;;;;;;;3.85;2.95;;;;;;;;;;5095144;28;20131;-66
2022/08/03 12:56:30;;;;;;;8.60;4.72;;;;;;;;;;5095087;28;20097;-67
2022/08/03 12:58:58;;;;;;;3.22;2.45;;;;;;;;;;5077983;28;20040;-66
2022/08/03 13:01:35;;;;;;;3.72;2.30;;;;;;;;;;5061254;28;20048;-66
2022/08/03 13:04:27;;;;;;;3.20;2.10;;;;;;;;;;5095410;28;20051;-66
2022/08/03 13:06:59;;;;;;;4.18;2.47;;;;;;;;;;5095419;28;20048;-66
2022/08/03 13:09:33;;;;;;;2.55;2.35;;;;;;;;;;5071090;28;20036;-66
2022/08/03 13:12:09;;;;;;;2.83;2.10;;;;;;;;;;5056704;28;20127;-66
2022/08/03 13:14:39;;;;;;;3.60;2.30;;;;;;;;;;5075416;28;20378;-66
2022/08/03 13:17:08;;;;;;;5.57;2.63;;;;;;;;;;5075241;28;20574;-68
2022/08/03 13:19:36;;;;;;;3.35;2.00;;;;;;;;;;5075007;28;20433;-67
2022/08/03 13:22:14;;;;;;;3.22;2.40;;;;;;;;;;5075328;28;20036;-67
2022/08/03 13:24:42;;;;;;;4.75;2.10;;;;;;;;;;5040605;28;20520;-72
2022/08/03 13:27:10;;;;;;;3.47;2.03;;;;;;;;;;5075605;28;20044;-70
2022/08/03 13:29:58;;;;;;;2.90;2.15;;;;;;;;;;5075304;28;20127;-69
2022/08/03 13:32:26;;;;;;;11.30;6.53;;;;;;;;;;5075808;28;20418;-72
2022/08/03 13:34:53;;;;;;;5.38;2.22;;;;;;;;;;5075322;28;20090;-66
2022/08/03 13:37:23;;;;;;;3.60;2.30;;;;;;;;;;5073630;28;20481;-63
2022/08/03 13:39:54;;;;;;;3.90;2.08;;;;;;;;;;5079483;28;20032;-67
2022/08/03 13:42:27;;;;;;;2.50;2.22;;;;;;;;;;5090063;28;20145;-67
2022/08/03 13:44:55;;;;;;;4.38;3.30;;;;;;;;;;5073613;28;20044;-66
2022/08/03 13:47:22;;;;;;;6.88;3.40;;;;;;;;;;5073321;28;20070;-66
2022/08/03 13:49:52;;;;;;;2.97;2.22;;;;;;;;;;5073902;28;20371;-67
2022/08/03 13:52:27;;;;;;;3.88;2.40;;;;;;;;;;5073823;28;20127;-67
2022/08/03 13:54:55;;;;;;;3.90;2.70;;;;;;;;;;5055945;28;20048;-66
2022/08/03 13:57:23;;;;;;;2.40;2.20;;;;;;;;;;5073787;28;20512;-66
2022/08/03 14:00:11;;;;;;;2.72;2.00;;;;;;;;;;5073206;28;20064;-66
2022/08/03 14:02:38;;;;;;;3.65;2.55;;;;;;;;;;5073165;28;20050;-66
2022/08/03 14:05:07;;;;;;;5.40;2.45;;;;;;;;;;5055251;28;20094;-66
2022/08/03 14:07:34;;;;;;;2.88;2.22;;;;;;;;;;5085192;28;20075;-67
2022/08/03 14:10:02;;;;;;;1.88;1.77;;;;;;;;;;5084199;28;20043;-67
2022/08/03 14:12:30;;;;;;;3.22;2.22;;;;;;;;;;5093136;28;20070;-67
2022/08/03 14:14:58;;;;;;;2.00;1.77;;;;;;;;;;5093369;28;20036;-67
2022/08/03 14:17:28;;;;;;;2.35;1.90;;;;;;;;;;5092828;28;20549;-67
2022/08/03 14:20:15;;;;;;;7.20;2.40;;;;;;;;;;5091103;28;20063;-67
2022/08/03 14:23:03;;;;;;;3.03;2.30;;;;;;;;;;5092285;28;20094;-66
2022/08/03 14:25:30;;;;;;;8.48;3.10;;;;;;;;;;5093016;28;20512;-65
2022/08/03 14:28:18;;;;;;;6.53;2.55;;;;;;;;;;5092573;28;20577;-66
2022/08/03 14:30:47;;;;;;;3.40;3.10;;;;;;;;;;5092809;28;20044;-66
2022/08/03 14:33:15;;;;;;;2.75;2.05;;;;;;;;;;5058142;28;20489;-66
2022/08/03 14:35:43;;;;;;;5.60;2.45;;;;;;;;;;5091855;28;20049;-66
2022/08/03 14:38:10;;;;;;;4.13;2.80;;;;;;;;;;5083810;28;20048;-66
2022/08/03 14:40:38;;;;;;;2.25;2.05;;;;;;;;;;5075367;28;20098;-66
2022/08/03 14:43:05;;;;;;;2.45;2.03;;;;;;;;;;5087258;28;20045;-66
2022/08/03 14:45:33;;;;;;;3.75;2.50;;;;;;;;;;5082919;28;20098;-66
2022/08/03 14:48:01;;;;;;;3.17;2.40;;;;;;;;;;5093373;28;20068;-67
2022/08/03 14:50:49;;;;;;;2.60;2.00;;;;;;;;;;5093465;28;20032;-67
2022/08/03 14:53:18;;;;;;;3.30;3.00;;;;;;;;;;5092190;28;20052;-70
2022/08/03 14:55:48;;;;;;;6.18;2.60;;;;;;;;;;5091922;28;20040;-71
2022/08/03 14:58:21;;;;;;;2.05;1.90;;;;;;;;;;5087623;28;20040;-68
2022/08/03 15:00:49;;;;;;;3.33;2.20;;;;;;;;;;5085623;28;20039;-70
2022/08/03 15:03:20;;;;;;;2.80;2.20;;;;;;;;;;5091327;28;20032;-66
2022/08/03 15:05:48;;;;;;;3.38;2.17;;;;;;;;;;5075757;28;20040;-67
2022/08/03 15:08:18;;;;;;;2.45;1.98;;;;;;;;;;5091936;28;20032;-66
2022/08/03 15:10:45;;;;;;;2.78;2.10;;;;;;;;;;5067952;28;20102;-66
2022/08/03 15:13:15;;;;;;;2.60;2.15;;;;;;;;;;5083875;28;20040;-69